This is the latest recevied weather packets stored in our database for station/object EA1HEH-13. If no packets are shown the sender has not sent any weather packets the latest 10 day(s).
| Time | Temp. | Humidity | Pressure | Rain* | Wind** | Luminosity | Snow |
|---|---|---|---|---|---|---|---|
| 1787784277 | 21.11° C | 45% | 932.5 hPa | - | - | - | - |
| 1787783677 | 21.11° C | 45% | 932.4 hPa | - | - | - | - |
| 1787783077 | 21.11° C | 45% | 932.5 hPa | - | - | - | - |
| 1787782477 | 21.11° C | 45% | 932.5 hPa | - | - | - | - |
| 1787781877 | 21.11° C | 45% | 932.6 hPa | - | - | - | - |
| 1787781277 | 21.11° C | 44% | 932.6 hPa | - | - | - | - |
| 1787780677 | 21.67° C | 44% | 932.5 hPa | - | - | - | - |
| 1787780077 | 21.67° C | 45% | 932.5 hPa | - | - | - | - |
| 1787779477 | 21.11° C | 45% | 932.4 hPa | - | - | - | - |
| 1787778877 | 21.11° C | 45% | 932.4 hPa | - | - | - | - |
| 1787778277 | 21.11° C | 46% | 932.4 hPa | - | - | - | - |
| 1787777677 | 21.11° C | 46% | 932.4 hPa | - | - | - | - |
| 1787777077 | 21.11° C | 46% | 932.5 hPa | - | - | - | - |
| 1787776476 | 21.11° C | 46% | 932.5 hPa | - | - | - | - |
| 1787775877 | 21.11° C | 47% | 932.6 hPa | - | - | - | - |
| 1787775277 | 20.56° C | 46% | 932.5 hPa | - | - | - | - |
| 1787774677 | 20.56° C | 46% | 932.3 hPa | - | - | - | - |
| 1787774077 | 20.56° C | 46% | 932 hPa | - | - | - | - |
| 1787773480 | 20.56° C | 44% | 932.1 hPa | - | - | - | - |
| 1787772876 | 20.56° C | 42% | 932.2 hPa | - | - | - | - |
| 1787772280 | 21.67° C | 35% | 932.8 hPa | - | - | - | - |
| 1787771677 | 21.67° C | 33% | 932.7 hPa | - | - | - | - |
| 1787771076 | 22.22° C | 32% | 932.8 hPa | - | - | - | - |
| 1787770476 | 22.22° C | 31% | 932.5 hPa | - | - | - | - |
| 1787769877 | 22.22° C | 31% | 932.4 hPa | - | - | - | - |
* Rain since midnight (hover to see other rain measurements)
** Current wind speed in m/s (hover to see current wind gust speed)